Time;durP1;ratioP1;P1;durP2;ratioP2;P2;SDS_P1;SDS_P2;PMS_P1;PMS_P2;Temp;Humidity;BMP_temperature;BMP_pressure;BME280_temperature;BME280_humidity;BME280_pressure;Samples;Min_cycle;Max_cycle;Signal;HPM_P1;HPM_P2
2023/07/15 00:01:16;;;;;;;3.00;2.15;;;;;27.70;100242.00;;;;5087229;28;20296;-77
2023/07/15 00:03:43;;;;;;;2.03;1.60;;;;;27.70;100241.00;;;;5086085;28;20229;-78
2023/07/15 00:06:12;;;;;;;2.80;1.73;;;;;27.70;100236.00;;;;5087054;28;20190;-77
2023/07/15 00:08:39;;;;;;;3.92;2.03;;;;;27.70;100236.00;;;;5088091;28;20202;-78
2023/07/15 00:11:10;;;;;;;2.95;1.92;;;;;27.70;100234.00;;;;5088391;28;20201;-77
2023/07/15 00:13:37;;;;;;;3.28;1.92;;;;;27.70;100227.00;;;;5089227;28;20624;-78
2023/07/15 00:16:05;;;;;;;1.90;1.50;;;;;27.70;100231.00;;;;5087284;28;20193;-78
2023/07/15 00:18:33;;;;;;;3.05;1.90;;;;;27.70;100226.00;;;;5085848;28;20248;-78
2023/07/15 00:21:00;;;;;;;2.70;1.65;;;;;27.70;100221.00;;;;5088452;28;20703;-78
2023/07/15 00:23:29;;;;;;;2.75;1.83;;;;;27.60;100226.00;;;;5087402;28;20221;-78
2023/07/15 00:25:56;;;;;;;2.70;1.63;;;;;27.60;100226.00;;;;5087564;28;20600;-78
2023/07/15 00:28:24;;;;;;;2.53;1.73;;;;;27.60;100221.00;;;;5086883;28;20205;-78
2023/07/15 00:30:54;;;;;;;2.33;1.67;;;;;27.60;100228.00;;;;5088491;28;20555;-77
2023/07/15 00:33:22;;;;;;;2.88;2.03;;;;;27.60;100232.00;;;;5086955;28;20288;-77
2023/07/15 00:35:50;;;;;;;1.90;1.63;;;;;27.60;100232.00;;;;5088322;28;20660;-77
2023/07/15 00:38:17;;;;;;;2.47;1.83;;;;;27.60;100232.00;;;;5086101;28;20194;-77
2023/07/15 00:40:48;;;;;;;1.98;1.50;;;;;27.60;100232.00;;;;5086896;28;20209;-78
2023/07/15 00:43:52;;;;;;;1.48;1.30;;;;;27.50;100230.00;;;;5069170;28;20231;-78
2023/07/15 00:47:01;;;;;;;2.20;1.40;;;;;27.40;100242.00;;;;5066886;28;20672;-78
2023/07/15 00:49:32;;;;;;;2.47;1.48;;;;;27.60;100235.00;;;;5086589;28;20202;-77
2023/07/15 00:52:03;;;;;;;4.55;1.80;;;;;27.50;100243.00;;;;5087964;28;20214;-77
2023/07/15 00:54:33;;;;;;;3.17;1.35;;;;;27.60;100238.00;;;;5088528;28;20194;-77
2023/07/15 00:57:01;;;;;;;2.50;1.45;;;;;27.60;100238.00;;;;5080757;28;20190;-77
2023/07/15 00:59:30;;;;;;;2.00;1.40;;;;;27.60;100229.00;;;;5087470;28;20613;-77
2023/07/15 01:01:59;;;;;;;2.55;1.55;;;;;27.60;100236.00;;;;5089824;28;20202;-78
2023/07/15 01:04:26;;;;;;;3.08;1.23;;;;;27.60;100241.00;;;;5094744;28;20221;-78
2023/07/15 01:06:55;;;;;;;1.55;1.20;;;;;27.60;100246.00;;;;5106469;27;20663;-78
2023/07/15 01:09:23;;;;;;;2.60;1.30;;;;;27.60;100243.00;;;;5091139;28;20228;-78
2023/07/15 01:11:50;;;;;;;2.33;1.55;;;;;27.60;100256.00;;;;5079653;28;20649;-78
2023/07/15 01:14:18;;;;;;;1.70;1.42;;;;;27.60;100248.00;;;;5071024;28;20272;-78
2023/07/15 01:16:47;;;;;;;1.73;1.48;;;;;27.60;100248.00;;;;5078158;28;20703;-78
2023/07/15 01:19:18;;;;;;;1.67;1.40;;;;;27.60;100251.00;;;;5090085;28;20206;-78
2023/07/15 01:21:50;;;;;;;3.03;1.63;;;;;27.60;100246.00;;;;5096536;28;20193;-77
2023/07/15 01:24:19;;;;;;;3.30;1.20;;;;;27.60;100240.00;;;;5111312;28;20274;-78
2023/07/15 01:26:46;;;;;;;2.53;1.38;;;;;27.60;100245.00;;;;5083615;28;20191;-77
2023/07/15 01:29:14;;;;;;;1.48;1.10;;;;;27.60;100248.00;;;;5085658;28;20221;-78
2023/07/15 01:31:41;;;;;;;6.18;1.52;;;;;27.50;100250.00;;;;5090357;28;20286;-78
2023/07/15 01:34:09;;;;;;;2.65;1.70;;;;;27.50;100252.00;;;;5087374;28;20295;-77
2023/07/15 01:36:36;;;;;;;2.47;1.40;;;;;27.50;100260.00;;;;5090736;28;20191;-77
2023/07/15 01:39:06;;;;;;;3.13;1.90;;;;;27.50;100261.00;;;;5089837;28;20999;-77
2023/07/15 01:41:35;;;;;;;1.40;1.15;;;;;27.50;100263.00;;;;5090924;28;20222;-77
2023/07/15 01:44:04;;;;;;;2.28;1.55;;;;;27.50;100258.00;;;;5083202;28;20225;-77
2023/07/15 01:46:34;;;;;;;2.25;1.23;;;;;27.50;100262.00;;;;5070668;28;20303;-78
2023/07/15 01:49:03;;;;;;;2.75;1.35;;;;;27.40;100263.00;;;;5082379;28;20230;-77
2023/07/15 01:51:30;;;;;;;1.70;1.30;;;;;27.40;100267.00;;;;5089757;28;20594;-78
2023/07/15 01:53:58;;;;;;;1.42;1.13;;;;;27.40;100266.00;;;;5089217;28;20199;-78
2023/07/15 01:59:11;;;;;;;2.10;1.48;;;;;27.40;100265.00;;;;4387679;23;20845;-82
2023/07/15 02:01:40;;;;;;;2.10;1.70;;;;;27.40;100269.00;;;;4984635;28;20551;-82
2023/07/15 02:04:07;;;;;;;1.40;1.15;;;;;27.40;100264.00;;;;4991063;28;20229;-82
2023/07/15 02:06:34;;;;;;;2.05;1.48;;;;;27.40;100271.00;;;;4991608;28;20202;-81
2023/07/15 02:09:05;;;;;;;2.03;1.30;;;;;27.40;100265.00;;;;4991887;28;20205;-82
2023/07/15 02:11:33;;;;;;;2.10;1.42;;;;;27.30;100270.00;;;;4985283;28;20317;-82
2023/07/15 02:14:00;;;;;;;4.03;1.50;;;;;27.30;100262.00;;;;4988545;28;20202;-83
2023/07/15 02:16:29;;;;;;;2.97;1.20;;;;;27.30;100268.00;;;;4990696;28;20675;-83
2023/07/15 02:18:56;;;;;;;1.65;1.30;;;;;27.30;100268.00;;;;4991385;28;20201;-82
2023/07/15 02:21:25;;;;;;;1.73;1.42;;;;;27.30;100270.00;;;;4988959;28;20662;-82
2023/07/15 02:23:53;;;;;;;2.22;1.38;;;;;27.20;100271.00;;;;4989992;28;20308;-82
2023/07/15 02:26:20;;;;;;;2.03;1.50;;;;;27.20;100274.00;;;;4990938;28;20793;-83
2023/07/15 02:28:48;;;;;;;4.32;1.50;;;;;27.20;100276.00;;;;4989576;28;20558;-82
2023/07/15 02:31:15;;;;;;;2.55;1.67;;;;;27.20;100279.00;;;;4986223;28;20206;-82
2023/07/15 02:33:44;;;;;;;2.45;1.40;;;;;27.10;100286.00;;;;4990969;28;20205;-82
2023/07/15 02:36:12;;;;;;;2.05;1.40;;;;;27.10;100288.00;;;;4989831;28;20205;-82
2023/07/15 02:38:39;;;;;;;1.80;1.42;;;;;27.10;100294.00;;;;4991137;28;20217;-83
2023/07/15 02:41:06;;;;;;;1.80;1.33;;;;;27.00;100297.00;;;;4989358;28;20201;-83
2023/07/15 02:43:34;;;;;;;1.63;1.45;;;;;27.00;100294.00;;;;4986923;28;20225;-82
2023/07/15 02:46:02;;;;;;;2.55;1.38;;;;;27.00;100291.00;;;;4972840;28;20206;-82
2023/07/15 02:48:29;;;;;;;2.65;1.65;;;;;26.90;100286.00;;;;4989279;28;20216;-82
2023/07/15 02:50:58;;;;;;;3.08;1.30;;;;;26.80;100284.00;;;;4981826;28;20209;-82
2023/07/15 02:53:26;;;;;;;1.58;1.40;;;;;26.80;100285.00;;;;4982785;28;20296;-82
2023/07/15 02:55:54;;;;;;;1.50;1.40;;;;;26.80;100286.00;;;;4988697;28;20261;-82
2023/07/15 02:58:22;;;;;;;1.50;1.35;;;;;26.70;100284.00;;;;5002379;28;20220;-83
2023/07/15 03:00:51;;;;;;;1.98;1.20;;;;;26.70;100280.00;;;;5007027;28;20221;-82
2023/07/15 03:03:18;;;;;;;2.45;1.63;;;;;26.70;100282.00;;;;5004189;28;20229;-82
2023/07/15 03:05:47;;;;;;;6.65;2.13;;;;;26.60;100286.00;;;;5008478;28;20671;-82
2023/07/15 03:08:16;;;;;;;2.25;1.40;;;;;26.60;100289.00;;;;5005107;28;20201;-82
2023/07/15 03:10:44;;;;;;;1.92;1.55;;;;;26.50;100288.00;;;;5006940;28;20201;-83
2023/07/15 03:13:11;;;;;;;1.67;1.23;;;;;26.50;100281.00;;;;5009087;28;20216;-82
2023/07/15 03:15:40;;;;;;;2.28;1.70;;;;;26.50;100290.00;;;;5009690;28;20196;-82
2023/07/15 03:18:07;;;;;;;1.77;1.35;;;;;26.40;100283.00;;;;5008159;28;20208;-82
2023/07/15 03:20:35;;;;;;;1.63;1.15;;;;;26.40;100284.00;;;;5004921;28;20209;-82
2023/07/15 03:23:02;;;;;;;1.73;1.35;;;;;26.40;100281.00;;;;5008138;28;20297;-82
2023/07/15 03:25:31;;;;;;;2.92;1.63;;;;;26.30;100282.00;;;;5006722;28;20236;-82
2023/07/15 03:27:59;;;;;;;2.58;1.63;;;;;26.30;100283.00;;;;5008452;28;20193;-82
2023/07/15 03:30:27;;;;;;;1.73;1.25;;;;;26.30;100278.00;;;;5007824;28;20204;-82
2023/07/15 03:32:56;;;;;;;2.67;1.67;;;;;26.30;100284.00;;;;5005878;28;20233;-82
2023/07/15 03:35:24;;;;;;;1.92;1.60;;;;;26.20;100284.00;;;;5009179;28;20201;-82
2023/07/15 03:37:51;;;;;;;1.83;1.35;;;;;26.20;100282.00;;;;5004736;28;20727;-82
2023/07/15 03:40:18;;;;;;;3.53;1.45;;;;;26.20;100277.00;;;;5020113;28;20571;-84
2023/07/15 03:42:47;;;;;;;3.38;1.42;;;;;26.10;100271.00;;;;5007499;28;20263;-84
2023/07/15 03:45:14;;;;;;;4.43;1.55;;;;;26.10;100274.00;;;;5007665;28;20698;-82
2023/07/15 03:47:41;;;;;;;1.52;1.30;;;;;26.10;100280.00;;;;5010886;28;20649;-81
2023/07/15 03:50:11;;;;;;;3.40;1.70;;;;;26.10;100286.00;;;;5023896;28;20213;-82
2023/07/15 03:52:38;;;;;;;1.70;1.38;;;;;26.00;100282.00;;;;5006137;28;20212;-82
2023/07/15 03:55:06;;;;;;;3.97;1.90;;;;;26.00;100278.00;;;;4998691;28;20202;-82
2023/07/15 03:57:34;;;;;;;2.33;1.67;;;;;26.00;100279.00;;;;5016127;28;20228;-81
2023/07/15 04:00:06;;;;;;;2.15;1.60;;;;;26.00;100284.00;;;;5021304;28;20256;-81
2023/07/15 04:02:33;;;;;;;5.07;1.77;;;;;25.90;100280.00;;;;5008312;28;20205;-82
2023/07/15 04:05:01;;;;;;;1.63;1.52;;;;;25.90;100279.00;;;;5008923;28;20688;-81
2023/07/15 04:07:28;;;;;;;1.58;1.40;;;;;25.90;100284.00;;;;5023489;28;20226;-82
2023/07/15 04:09:55;;;;;;;4.18;1.85;;;;;25.90;100284.00;;;;5009258;28;20204;-83
2023/07/15 04:12:23;;;;;;;3.10;1.63;;;;;25.90;100291.00;;;;5002143;28;20658;-82
2023/07/15 04:14:51;;;;;;;2.97;1.42;;;;;25.80;100286.00;;;;5008345;28;20203;-82
2023/07/15 04:17:19;;;;;;;3.35;1.80;;;;;25.80;100284.00;;;;5007522;28;20201;-81
2023/07/15 04:19:47;;;;;;;3.05;1.58;;;;;25.80;100285.00;;;;5002953;28;20198;-82
2023/07/15 04:22:14;;;;;;;2.00;1.38;;;;;25.80;100288.00;;;;4996296;28;20207;-82
2023/07/15 04:24:41;;;;;;;2.78;1.92;;;;;25.80;100279.00;;;;5005551;28;20235;-82
2023/07/15 04:27:08;;;;;;;4.35;1.55;;;;;25.80;100278.00;;;;5018720;28;20203;-83
2023/07/15 04:29:36;;;;;;;2.80;1.50;;;;;25.90;100284.00;;;;5012174;28;20212;-82
2023/07/15 04:32:03;;;;;;;1.67;1.35;;;;;25.90;100286.00;;;;5006397;28;20204;-82
2023/07/15 04:34:33;;;;;;;2.00;1.33;;;;;25.90;100286.00;;;;5007489;28;20666;-83
2023/07/15 04:37:00;;;;;;;2.45;1.77;;;;;25.90;100286.00;;;;5017743;28;20574;-82
2023/07/15 04:39:28;;;;;;;3.50;1.60;;;;;25.90;100293.00;;;;5027930;28;20196;-83
2023/07/15 04:41:55;;;;;;;4.38;1.60;;;;;26.00;100289.00;;;;5012829;28;20228;-83
2023/07/15 04:44:23;;;;;;;1.75;1.45;;;;;26.00;100287.00;;;;5008134;28;20221;-83
2023/07/15 04:46:50;;;;;;;2.10;1.70;;;;;26.00;100296.00;;;;5006427;28;20193;-83
2023/07/15 04:49:18;;;;;;;3.17;1.65;;;;;26.00;100294.00;;;;5007596;28;20201;-82
2023/07/15 04:51:47;;;;;;;2.63;1.83;;;;;26.10;100294.00;;;;5006221;28;20199;-82
2023/07/15 04:54:14;;;;;;;3.38;1.70;;;;;26.10;100299.00;;;;5002568;28;20201;-82
2023/07/15 04:56:42;;;;;;;2.58;1.38;;;;;26.10;100306.00;;;;4999505;28;20621;-82
2023/07/15 04:59:10;;;;;;;1.45;1.27;;;;;26.10;100303.00;;;;5007496;28;20236;-82
2023/07/15 05:01:38;;;;;;;1.98;1.77;;;;;26.20;100306.00;;;;4998887;28;20659;-83
2023/07/15 05:04:05;;;;;;;2.65;1.98;;;;;26.20;100297.00;;;;4989001;28;20230;-82
2023/07/15 05:06:33;;;;;;;2.13;1.33;;;;;26.20;100314.00;;;;5001412;28;20208;-83
2023/07/15 05:09:04;;;;;;;2.08;1.40;;;;;26.20;100308.00;;;;5025628;28;20196;-83
2023/07/15 05:11:31;;;;;;;1.80;1.58;;;;;26.20;100310.00;;;;5012822;28;20209;-83
2023/07/15 05:13:59;;;;;;;4.03;2.00;;;;;26.30;100307.00;;;;5001075;28;20205;-82
2023/07/15 05:16:27;;;;;;;6.82;5.28;;;;;26.30;100309.00;;;;5005934;28;20283;-81
2023/07/15 05:18:54;;;;;;;11.15;9.48;;;;;26.30;100315.00;;;;4999762;28;20289;-81
2023/07/15 05:21:21;;;;;;;14.05;10.15;;;;;26.40;100310.00;;;;5005903;28;20213;-82
2023/07/15 05:23:49;;;;;;;6.65;5.78;;;;;26.40;100307.00;;;;5007394;28;20197;-81
2023/07/15 05:26:17;;;;;;;5.95;4.05;;;;;26.50;100314.00;;;;5005704;28;20301;-81
2023/07/15 05:28:45;;;;;;;3.90;3.05;;;;;26.60;100309.00;;;;5006412;28;20217;-81
2023/07/15 05:31:12;;;;;;;3.17;2.33;;;;;26.60;100309.00;;;;5007067;28;20201;-82
2023/07/15 05:33:44;;;;;;;3.38;1.95;;;;;26.70;100312.00;;;;5006830;28;20205;-82
2023/07/15 05:36:11;;;;;;;4.72;2.35;;;;;26.70;100311.00;;;;5006892;28;20961;-82
2023/07/15 05:38:43;;;;;;;4.22;2.20;;;;;26.70;100308.00;;;;5027145;28;20227;-82
2023/07/15 05:41:11;;;;;;;2.55;2.00;;;;;26.80;100309.00;;;;5005509;28;20292;-82
2023/07/15 05:43:40;;;;;;;3.95;2.03;;;;;26.80;100307.00;;;;5003627;28;20220;-83
2023/07/15 05:46:07;;;;;;;3.75;2.05;;;;;26.90;100314.00;;;;5005615;28;20229;-83
2023/07/15 05:48:34;;;;;;;3.20;2.20;;;;;26.90;100317.00;;;;5001998;28;20603;-84
2023/07/15 05:51:02;;;;;;;2.55;1.80;;;;;27.00;100318.00;;;;5005044;28;20202;-83
2023/07/15 05:53:29;;;;;;;2.17;1.58;;;;;27.00;100322.00;;;;5008063;28;20197;-83
2023/07/15 05:55:57;;;;;;;2.30;2.00;;;;;27.10;100326.00;;;;5004515;28;20193;-84
2023/07/15 05:58:26;;;;;;;2.35;2.00;;;;;27.20;100333.00;;;;5008212;28;20241;-84
2023/07/15 06:00:55;;;;;;;2.40;1.60;;;;;27.20;100324.00;;;;5002952;28;20716;-84
2023/07/15 06:03:22;;;;;;;2.17;1.83;;;;;27.20;100320.00;;;;5005007;28;20212;-84
2023/07/15 06:05:50;;;;;;;4.00;1.50;;;;;27.30;100325.00;;;;5008186;28;20212;-83
2023/07/15 06:08:18;;;;;;;2.53;1.95;;;;;27.30;100330.00;;;;5007387;28;20196;-84
2023/07/15 06:10:45;;;;;;;5.70;2.15;;;;;27.30;100324.00;;;;5004828;28;20204;-83
2023/07/15 06:13:13;;;;;;;4.57;2.15;;;;;27.40;100325.00;;;;5008146;28;20243;-84
2023/07/15 06:15:42;;;;;;;1.75;1.52;;;;;27.40;100333.00;;;;5008028;28;20197;-84
2023/07/15 06:18:11;;;;;;;3.60;1.70;;;;;27.50;100334.00;;;;5006739;28;20559;-83
2023/07/15 06:20:40;;;;;;;2.55;1.83;;;;;27.50;100332.00;;;;5006399;28;20579;-84
2023/07/15 06:23:08;;;;;;;2.83;1.60;;;;;27.60;100326.00;;;;4998509;28;20212;-84
2023/07/15 06:25:37;;;;;;;2.72;1.65;;;;;27.70;100332.00;;;;5014525;28;20228;-80
2023/07/15 06:28:05;;;;;;;7.13;1.90;;;;;27.70;100332.00;;;;5010005;28;20729;-83
2023/07/15 06:30:32;;;;;;;3.28;1.40;;;;;27.70;100337.00;;;;5004555;28;20412;-83
2023/07/15 06:33:00;;;;;;;1.95;1.40;;;;;27.80;100331.00;;;;5008220;28;20201;-84
2023/07/15 06:35:28;;;;;;;1.88;1.30;;;;;27.80;100326.00;;;;5014614;28;20577;-83
2023/07/15 06:37:56;;;;;;;2.03;1.05;;;;;27.90;100333.00;;;;5012404;28;20655;-83
2023/07/15 06:40:23;;;;;;;3.28;1.27;;;;;28.00;100335.00;;;;5022991;28;20394;-85
2023/07/15 06:42:51;;;;;;;1.40;1.10;;;;;28.00;100335.00;;;;5009713;28;20212;-84
2023/07/15 06:45:20;;;;;;;2.35;1.55;;;;;28.10;100344.00;;;;5007183;28;20252;-83
2023/07/15 06:47:48;;;;;;;1.20;0.82;;;;;28.10;100338.00;;;;5016823;28;20200;-84
2023/07/15 06:50:15;;;;;;;1.48;0.77;;;;;28.20;100336.00;;;;5012278;28;20312;-83
2023/07/15 06:52:44;;;;;;;1.10;0.80;;;;;28.20;100338.00;;;;5008167;28;20197;-83
2023/07/15 06:55:12;;;;;;;1.63;1.30;;;;;28.20;100326.00;;;;5010267;28;20307;-84
2023/07/15 06:57:40;;;;;;;1.40;0.90;;;;;28.30;100338.00;;;;5010087;28;20955;-84
2023/07/15 07:00:09;;;;;;;2.35;0.98;;;;;28.30;100334.00;;;;5004778;28;20228;-84
2023/07/15 07:02:36;;;;;;;1.08;0.95;;;;;28.30;100338.00;;;;5006903;28;20197;-82
2023/07/15 07:05:03;;;;;;;0.95;0.60;;;;;28.40;100342.00;;;;5010243;28;20236;-81
2023/07/15 07:07:31;;;;;;;1.65;0.82;;;;;28.50;100333.00;;;;5008556;28;20762;-83
2023/07/15 07:09:59;;;;;;;2.03;0.70;;;;;28.50;100335.00;;;;5007087;28;20196;-85
2023/07/15 07:12:26;;;;;;;1.20;0.70;;;;;28.50;100333.00;;;;5002479;28;20667;-84
2023/07/15 07:14:54;;;;;;;0.95;0.70;;;;;28.60;100338.00;;;;5006253;28;20737;-84
2023/07/15 07:17:21;;;;;;;1.40;0.73;;;;;28.60;100337.00;;;;5008697;28;20205;-84
2023/07/15 07:19:48;;;;;;;1.90;0.82;;;;;28.70;100332.00;;;;5011414;28;20556;-84
2023/07/15 07:22:16;;;;;;;1.85;0.90;;;;;28.70;100336.00;;;;4994405;28;20214;-85
2023/07/15 07:24:43;;;;;;;1.10;1.00;;;;;28.80;100338.00;;;;4987860;28;20225;-84
2023/07/15 07:27:12;;;;;;;1.45;0.90;;;;;28.80;100334.00;;;;5013106;28;20201;-83
2023/07/15 07:29:40;;;;;;;1.25;0.82;;;;;28.90;100337.00;;;;5000616;28;20682;-81
2023/07/15 07:32:08;;;;;;;1.65;0.75;;;;;28.90;100341.00;;;;5003974;28;20200;-82
2023/07/15 07:34:35;;;;;;;1.38;0.77;;;;;29.00;100348.00;;;;5004628;28;20220;-83
2023/07/15 07:37:03;;;;;;;1.48;1.05;;;;;29.10;100349.00;;;;5005100;28;20212;-84
2023/07/15 07:39:30;;;;;;;1.38;0.70;;;;;29.20;100348.00;;;;5007797;28;20212;-85
2023/07/15 07:41:58;;;;;;;1.50;0.90;;;;;29.30;100361.00;;;;4996905;28;20215;-84
2023/07/15 07:44:26;;;;;;;2.50;1.20;;;;;29.30;100370.00;;;;5008927;28;20200;-84
2023/07/15 07:46:53;;;;;;;0.93;0.90;;;;;29.40;100372.00;;;;5003207;28;20596;-83
2023/07/15 07:49:24;;;;;;;1.83;1.13;;;;;29.40;100375.00;;;;5003762;28;20205;-85
2023/07/15 07:51:51;;;;;;;3.38;1.10;;;;;29.40;100372.00;;;;5004227;28;20271;-86
2023/07/15 07:54:18;;;;;;;0.95;0.88;;;;;29.50;100385.00;;;;5009803;28;20760;-86
2023/07/15 07:56:46;;;;;;;1.25;1.00;;;;;29.50;100381.00;;;;5000864;28;20197;-83
2023/07/15 07:59:13;;;;;;;1.08;0.93;;;;;29.50;100381.00;;;;4999046;28;20240;-82
2023/07/15 08:01:42;;;;;;;1.45;1.00;;;;;29.40;100376.00;;;;5002769;28;20198;-83
2023/07/15 08:04:09;;;;;;;2.83;0.98;;;;;29.40;100372.00;;;;4996198;28;20198;-83
2023/07/15 08:06:36;;;;;;;1.77;1.00;;;;;29.40;100369.00;;;;5000678;28;20228;-82
2023/07/15 08:09:04;;;;;;;1.27;1.17;;;;;29.40;100373.00;;;;5002707;28;20221;-81
2023/07/15 08:11:32;;;;;;;1.20;1.10;;;;;29.50;100370.00;;;;4986263;28;21557;-84
2023/07/15 08:13:59;;;;;;;1.20;1.08;;;;;29.50;100379.00;;;;5004672;28;20209;-83
2023/07/15 08:16:33;;;;;;;1.30;1.20;;;;;29.50;100369.00;;;;5003112;28;20213;-82
2023/07/15 08:19:03;;;;;;;2.38;1.77;;;;;29.60;100362.00;;;;5001015;28;20203;-83
2023/07/15 08:21:31;;;;;;;2.33;1.30;;;;;29.70;100371.00;;;;5005303;28;20765;-80
2023/07/15 08:23:58;;;;;;;0.95;0.88;;;;;29.80;100367.00;;;;4992018;28;20204;-82
2023/07/15 08:26:26;;;;;;;1.23;1.13;;;;;29.90;100362.00;;;;4992098;28;20228;-78
2023/07/15 08:28:55;;;;;;;1.50;1.23;;;;;29.90;100371.00;;;;5014335;28;20597;-82
2023/07/15 08:31:22;;;;;;;1.38;1.20;;;;;30.00;100359.00;;;;5005499;28;20662;-80
2023/07/15 08:33:49;;;;;;;1.48;1.10;;;;;30.10;100361.00;;;;4998303;28;20584;-82
2023/07/15 08:36:18;;;;;;;2.35;1.10;;;;;30.10;100379.00;;;;5010101;28;20200;-84
2023/07/15 08:38:45;;;;;;;1.30;1.20;;;;;30.20;100382.00;;;;5008633;28;20193;-85
2023/07/15 08:41:15;;;;;;;3.45;1.40;;;;;30.20;100382.00;;;;5005722;28;20197;-84
2023/07/15 08:43:45;;;;;;;2.13;1.08;;;;;30.20;100372.00;;;;4988636;28;20201;-86
2023/07/15 08:46:20;;;;;;;1.48;1.00;;;;;30.20;100380.00;;;;4993044;28;20225;-84
2023/07/15 08:48:48;;;;;;;1.40;1.30;;;;;30.20;100374.00;;;;5004637;28;21960;-85
2023/07/15 08:51:16;;;;;;;1.50;1.30;;;;;30.20;100371.00;;;;5005995;28;20949;-82
2023/07/15 08:53:45;;;;;;;2.33;1.25;;;;;30.20;100375.00;;;;5001534;28;20205;-83
2023/07/15 08:56:14;;;;;;;1.60;1.50;;;;;30.20;100384.00;;;;5005157;28;20208;-82
2023/07/15 08:58:41;;;;;;;2.10;1.67;;;;;30.30;100387.00;;;;5002721;28;20213;-81
2023/07/15 09:01:09;;;;;;;1.25;1.13;;;;;30.30;100380.00;;;;5006906;28;20201;-81
2023/07/15 09:03:36;;;;;;;3.53;1.73;;;;;30.30;100391.00;;;;5004724;28;20209;-81
2023/07/15 09:06:03;;;;;;;1.70;1.50;;;;;30.30;100404.00;;;;5004956;28;20229;-80
2023/07/15 09:08:33;;;;;;;3.30;1.58;;;;;30.30;100408.00;;;;5006676;28;20223;-83
2023/07/15 09:11:02;;;;;;;1.95;1.50;;;;;30.30;100401.00;;;;5005341;28;20193;-81
2023/07/15 09:13:32;;;;;;;1.80;1.45;;;;;30.30;100407.00;;;;5004556;28;20564;-81
2023/07/15 09:16:00;;;;;;;2.05;1.20;;;;;30.30;100404.00;;;;5003352;28;20208;-82
2023/07/15 09:18:27;;;;;;;3.72;1.45;;;;;30.30;100400.00;;;;5003178;28;21072;-79
2023/07/15 09:21:09;;;;;;;2.15;1.67;;;;;30.20;100408.00;;;;5006292;28;20201;-77
2023/07/15 09:23:41;;;;;;;2.65;1.50;;;;;30.30;100404.00;;;;5007134;28;20205;-79
2023/07/15 09:26:09;;;;;;;1.80;1.33;;;;;30.30;100400.00;;;;5014011;28;20595;-82
2023/07/15 09:28:36;;;;;;;2.17;1.20;;;;;30.30;100406.00;;;;5016589;28;20208;-82
2023/07/15 09:31:04;;;;;;;2.90;1.38;;;;;30.40;100416.00;;;;5012229;28;20197;-79
2023/07/15 09:33:35;;;;;;;2.28;1.70;;;;;30.40;100414.00;;;;5006771;28;20267;-80
2023/07/15 09:36:03;;;;;;;1.92;1.65;;;;;30.40;100411.00;;;;5007545;28;20210;-79
2023/07/15 09:38:39;;;;;;;2.03;1.77;;;;;30.30;100407.00;;;;5015594;28;20197;-79
2023/07/15 09:41:08;;;;;;;1.65;1.55;;;;;30.30;100419.00;;;;5006463;28;20203;-78
2023/07/15 09:43:46;;;;;;;1.50;1.40;;;;;30.20;100402.00;;;;5012211;28;20682;-79
2023/07/15 09:46:15;;;;;;;1.50;1.38;;;;;30.30;100408.00;;;;5011018;28;20772;-78
2023/07/15 09:48:43;;;;;;;2.15;1.50;;;;;30.30;100416.00;;;;5014095;28;20206;-81
2023/07/15 09:51:13;;;;;;;2.22;1.60;;;;;30.30;100401.00;;;;5012681;28;20197;-80
2023/07/15 09:53:44;;;;;;;1.42;1.30;;;;;30.40;100416.00;;;;5005440;28;20248;-83
2023/07/15 09:56:13;;;;;;;1.50;1.40;;;;;30.40;100419.00;;;;5010827;28;20251;-82
2023/07/15 09:58:47;;;;;;;1.55;1.45;;;;;30.40;100421.00;;;;5007950;28;20217;-83
2023/07/15 10:01:24;;;;;;;1.17;1.08;;;;;30.30;100425.00;;;;5007128;28;20201;-81
2023/07/15 10:03:56;;;;;;;2.10;1.05;;;;;30.30;100429.00;;;;4999374;28;20287;-82
2023/07/15 10:06:24;;;;;;;1.60;1.42;;;;;30.30;100431.00;;;;5010020;28;20221;-80
2023/07/15 10:08:54;;;;;;;1.52;1.27;;;;;30.20;100431.00;;;;5019244;28;20581;-81
2023/07/15 10:11:22;;;;;;;2.00;1.40;;;;;30.20;100424.00;;;;5009845;28;20214;-85
2023/07/15 10:13:49;;;;;;;2.58;1.10;;;;;30.20;100422.00;;;;5002825;28;20235;-85
2023/07/15 10:16:17;;;;;;;1.30;1.13;;;;;30.10;100435.00;;;;5001637;28;20569;-85
2023/07/15 10:18:47;;;;;;;1.63;1.30;;;;;30.10;100428.00;;;;4994560;28;20206;-84
2023/07/15 10:21:16;;;;;;;2.25;1.25;;;;;30.10;100425.00;;;;4999549;28;21370;-84
2023/07/15 10:23:43;;;;;;;2.58;1.30;;;;;30.10;100431.00;;;;5005125;28;20193;-84
2023/07/15 10:26:19;;;;;;;3.63;1.38;;;;;30.00;100431.00;;;;4996311;28;20224;-85
2023/07/15 10:28:53;;;;;;;2.10;1.17;;;;;29.90;100425.00;;;;4984177;28;20204;-85
2023/07/15 10:31:25;;;;;;;2.55;1.30;;;;;30.00;100415.00;;;;4993555;28;20846;-84
2023/07/15 10:33:54;;;;;;;2.80;1.30;;;;;30.00;100410.00;;;;4989384;28;20201;-83
2023/07/15 10:36:47;;;;;;;2.05;1.65;;;;;29.90;100406.00;;;;5001272;28;20209;-83
2023/07/15 10:39:15;;;;;;;1.83;1.23;;;;;30.00;100397.00;;;;4973041;28;20209;-84
2023/07/15 10:41:46;;;;;;;1.08;0.90;;;;;30.00;100400.00;;;;4989300;28;20206;-85
2023/07/15 10:44:17;;;;;;;1.33;1.10;;;;;30.00;100386.00;;;;4994321;28;20208;-85
2023/07/15 10:46:46;;;;;;;1.30;1.05;;;;;30.10;100380.00;;;;5006465;28;20224;-83
2023/07/15 10:49:13;;;;;;;2.63;1.10;;;;;30.10;100379.00;;;;5008915;28;20315;-84
2023/07/15 10:51:41;;;;;;;2.53;1.23;;;;;30.10;100379.00;;;;5006471;28;20205;-85
2023/07/15 10:54:08;;;;;;;1.63;1.13;;;;;30.20;100379.00;;;;5007249;28;20193;-84
2023/07/15 10:56:36;;;;;;;1.77;1.20;;;;;30.20;100377.00;;;;5004947;28;20780;-85
2023/07/15 10:59:04;;;;;;;2.63;1.20;;;;;30.30;100374.00;;;;5007264;28;20741;-83
2023/07/15 11:01:32;;;;;;;2.05;1.20;;;;;30.30;100373.00;;;;5011775;28;21083;-82
2023/07/15 11:04:06;;;;;;;2.15;1.20;;;;;30.30;100362.00;;;;5016732;28;20204;-85
2023/07/15 11:06:34;;;;;;;3.00;1.63;;;;;30.40;100367.00;;;;5009926;28;20224;-82
2023/07/15 11:09:14;;;;;;;2.83;1.40;;;;;30.30;100383.00;;;;5009902;28;20197;-84
2023/07/15 11:11:42;;;;;;;2.33;1.48;;;;;30.50;100387.00;;;;5009632;28;20197;-82
2023/07/15 11:14:21;;;;;;;2.65;1.20;;;;;30.30;100382.00;;;;5006560;28;20217;-85
2023/07/15 11:16:51;;;;;;;1.80;1.33;;;;;30.40;100385.00;;;;5008579;28;20665;-83
2023/07/15 11:19:19;;;;;;;2.72;1.60;;;;;30.40;100387.00;;;;5009507;28;20201;-83
2023/07/15 11:21:47;;;;;;;2.88;1.10;;;;;30.40;100379.00;;;;5010369;28;20283;-82
2023/07/15 11:24:16;;;;;;;1.38;1.00;;;;;30.40;100385.00;;;;5004151;28;20212;-84
2023/07/15 11:26:44;;;;;;;2.40;0.88;;;;;30.40;100376.00;;;;5010311;28;20227;-84
2023/07/15 11:29:15;;;;;;;1.40;1.00;;;;;30.40;100368.00;;;;4990880;28;20643;-84
2023/07/15 11:31:49;;;;;;;2.90;1.40;;;;;30.40;100361.00;;;;5008583;28;20575;-85
2023/07/15 11:34:17;;;;;;;1.65;1.20;;;;;30.50;100361.00;;;;5008819;28;20205;-84
2023/07/15 11:36:46;;;;;;;2.40;1.05;;;;;30.60;100365.00;;;;5005627;28;20197;-83
2023/07/15 11:39:14;;;;;;;1.10;0.93;;;;;30.60;100368.00;;;;5005406;28;20236;-84
2023/07/15 11:41:43;;;;;;;4.13;1.40;;;;;30.60;100362.00;;;;5003331;28;20205;-86
2023/07/15 11:44:11;;;;;;;1.52;1.17;;;;;30.60;100366.00;;;;4996564;28;20200;-84
2023/07/15 11:46:39;;;;;;;2.40;1.35;;;;;30.50;100355.00;;;;5006704;28;20225;-84
2023/07/15 11:49:10;;;;;;;2.28;1.48;;;;;30.50;100360.00;;;;5002099;28;20229;-82
2023/07/15 11:51:41;;;;;;;2.15;1.27;;;;;30.50;100355.00;;;;5004394;28;20228;-83
2023/07/15 11:54:09;;;;;;;3.20;1.50;;;;;30.50;100367.00;;;;4989361;28;20206;-81
2023/07/15 11:56:39;;;;;;;1.92;1.30;;;;;30.50;100362.00;;;;4995639;28;20212;-82
2023/07/15 11:59:08;;;;;;;1.65;1.30;;;;;30.50;100345.00;;;;5005561;28;20650;-85
2023/07/15 12:01:37;;;;;;;4.28;1.48;;;;;30.50;100353.00;;;;5006087;28;20201;-83
2023/07/15 12:04:16;;;;;;;1.05;0.93;;;;;30.40;100352.00;;;;5010965;28;20232;-82
2023/07/15 12:06:48;;;;;;;2.08;1.50;;;;;30.50;100352.00;;;;5015737;28;21257;-80
2023/07/15 12:09:18;;;;;;;1.73;1.40;;;;;30.50;100334.00;;;;5004183;28;20615;-82
2023/07/15 12:11:46;;;;;;;4.13;1.20;;;;;30.60;100326.00;;;;5002674;28;20625;-83
2023/07/15 12:14:15;;;;;;;2.42;1.60;;;;;30.70;100324.00;;;;5004601;28;20200;-82
2023/07/15 12:16:43;;;;;;;2.13;1.23;;;;;30.70;100334.00;;;;5004498;28;20209;-83
2023/07/15 12:19:13;;;;;;;1.30;1.17;;;;;30.70;100332.00;;;;5004997;28;20196;-82